sensor_id;sensor_type;location;lat;lon;timestamp;P1;durP1;ratioP1;P2;durP2;ratioP2
22916;SDS011;11624;53.250;7.456;2022-08-01T00:01:31;11.32;;;3.40;;
22916;SDS011;11624;53.250;7.456;2022-08-01T00:04:00;12.07;;;3.25;;
22916;SDS011;11624;53.250;7.456;2022-08-01T00:06:28;9.27;;;3.15;;
22916;SDS011;11624;53.250;7.456;2022-08-01T00:08:56;11.55;;;2.80;;
22916;SDS011;11624;53.250;7.456;2022-08-01T00:11:25;10.23;;;3.83;;
22916;SDS011;11624;53.250;7.456;2022-08-01T00:13:54;9.25;;;3.28;;
22916;SDS011;11624;53.250;7.456;2022-08-01T00:16:23;14.40;;;4.20;;
22916;SDS011;11624;53.250;7.456;2022-08-01T00:18:52;14.05;;;4.35;;
22916;SDS011;11624;53.250;7.456;2022-08-01T00:21:21;13.60;;;4.82;;
22916;SDS011;11624;53.250;7.456;2022-08-01T00:23:50;17.08;;;5.43;;
22916;SDS011;11624;53.250;7.456;2022-08-01T00:26:18;20.48;;;6.13;;
22916;SDS011;11624;53.250;7.456;2022-08-01T00:28:46;14.98;;;6.00;;
22916;SDS011;11624;53.250;7.456;2022-08-01T00:31:15;12.70;;;5.60;;
22916;SDS011;11624;53.250;7.456;2022-08-01T00:33:45;14.63;;;5.80;;
22916;SDS011;11624;53.250;7.456;2022-08-01T00:36:13;14.38;;;6.13;;
22916;SDS011;11624;53.250;7.456;2022-08-01T00:38:41;16.60;;;6.93;;
22916;SDS011;11624;53.250;7.456;2022-08-01T00:41:10;14.57;;;7.13;;
22916;SDS011;11624;53.250;7.456;2022-08-01T00:43:38;16.48;;;7.53;;
22916;SDS011;11624;53.250;7.456;2022-08-01T00:46:07;16.95;;;8.75;;
22916;SDS011;11624;53.250;7.456;2022-08-01T00:48:35;19.35;;;9.13;;
22916;SDS011;11624;53.250;7.456;2022-08-01T00:51:05;18.10;;;8.13;;
22916;SDS011;11624;53.250;7.456;2022-08-01T00:53:33;17.90;;;7.88;;
22916;SDS011;11624;53.250;7.456;2022-08-01T00:56:17;20.77;;;7.65;;
22916;SDS011;11624;53.250;7.456;2022-08-01T00:58:47;18.27;;;6.43;;
22916;SDS011;11624;53.250;7.456;2022-08-01T01:01:16;15.20;;;6.18;;
22916;SDS011;11624;53.250;7.456;2022-08-01T01:03:47;13.50;;;5.20;;
22916;SDS011;11624;53.250;7.456;2022-08-01T01:06:28;14.68;;;5.57;;
22916;SDS011;11624;53.250;7.456;2022-08-01T01:09:12;17.10;;;5.45;;
22916;SDS011;11624;53.250;7.456;2022-08-01T01:11:48;15.25;;;5.80;;
22916;SDS011;11624;53.250;7.456;2022-08-01T01:14:27;19.70;;;6.60;;
22916;SDS011;11624;53.250;7.456;2022-08-01T01:17:00;18.08;;;6.20;;
22916;SDS011;11624;53.250;7.456;2022-08-01T01:19:33;20.10;;;6.70;;
22916;SDS011;11624;53.250;7.456;2022-08-01T01:25:17;19.77;;;7.03;;
22916;SDS011;11624;53.250;7.456;2022-08-01T01:27:57;15.85;;;5.95;;
22916;SDS011;11624;53.250;7.456;2022-08-01T01:30:33;17.85;;;6.05;;
22916;SDS011;11624;53.250;7.456;2022-08-01T01:33:03;17.15;;;5.60;;
22916;SDS011;11624;53.250;7.456;2022-08-01T01:35:37;15.73;;;6.18;;
22916;SDS011;11624;53.250;7.456;2022-08-01T01:38:10;15.63;;;5.95;;
22916;SDS011;11624;53.250;7.456;2022-08-01T01:40:45;17.92;;;5.50;;
22916;SDS011;11624;53.250;7.456;2022-08-01T01:43:14;14.35;;;5.80;;
22916;SDS011;11624;53.250;7.456;2022-08-01T01:45:45;13.98;;;5.82;;
22916;SDS011;11624;53.250;7.456;2022-08-01T01:48:18;17.70;;;6.03;;
22916;SDS011;11624;53.250;7.456;2022-08-01T01:50:49;25.05;;;6.80;;
22916;SDS011;11624;53.250;7.456;2022-08-01T01:53:20;17.98;;;6.13;;
22916;SDS011;11624;53.250;7.456;2022-08-01T01:55:51;16.77;;;6.22;;
22916;SDS011;11624;53.250;7.456;2022-08-01T01:58:21;16.20;;;6.30;;
22916;SDS011;11624;53.250;7.456;2022-08-01T02:00:52;17.52;;;6.18;;
22916;SDS011;11624;53.250;7.456;2022-08-01T02:03:28;17.25;;;6.13;;
22916;SDS011;11624;53.250;7.456;2022-08-01T02:05:58;15.95;;;5.60;;
22916;SDS011;11624;53.250;7.456;2022-08-01T02:08:28;18.83;;;5.35;;
22916;SDS011;11624;53.250;7.456;2022-08-01T02:10:58;15.60;;;5.18;;
22916;SDS011;11624;53.250;7.456;2022-08-01T02:13:48;16.92;;;5.20;;
22916;SDS011;11624;53.250;7.456;2022-08-01T02:16:22;17.75;;;4.57;;
22916;SDS011;11624;53.250;7.456;2022-08-01T02:18:52;15.95;;;5.00;;
22916;SDS011;11624;53.250;7.456;2022-08-01T02:21:23;14.15;;;4.60;;
22916;SDS011;11624;53.250;7.456;2022-08-01T02:23:58;17.08;;;4.50;;
22916;SDS011;11624;53.250;7.456;2022-08-01T02:26:31;13.70;;;4.25;;
22916;SDS011;11624;53.250;7.456;2022-08-01T02:29:05;13.98;;;4.05;;
22916;SDS011;11624;53.250;7.456;2022-08-01T02:31:38;16.05;;;4.05;;
22916;SDS011;11624;53.250;7.456;2022-08-01T02:34:12;13.23;;;3.63;;
22916;SDS011;11624;53.250;7.456;2022-08-01T02:36:43;17.33;;;4.13;;
22916;SDS011;11624;53.250;7.456;2022-08-01T02:39:13;17.80;;;3.85;;
22916;SDS011;11624;53.250;7.456;2022-08-01T02:41:45;17.88;;;3.47;;
22916;SDS011;11624;53.250;7.456;2022-08-01T02:44:16;12.07;;;3.05;;
22916;SDS011;11624;53.250;7.456;2022-08-01T02:46:52;12.23;;;2.95;;
22916;SDS011;11624;53.250;7.456;2022-08-01T02:49:29;15.02;;;2.85;;
22916;SDS011;11624;53.250;7.456;2022-08-01T02:52:01;14.60;;;3.20;;
22916;SDS011;11624;53.250;7.456;2022-08-01T02:54:34;14.13;;;3.20;;
22916;SDS011;11624;53.250;7.456;2022-08-01T02:57:05;14.68;;;3.30;;
22916;SDS011;11624;53.250;7.456;2022-08-01T02:59:39;16.92;;;3.08;;
22916;SDS011;11624;53.250;7.456;2022-08-01T03:02:12;18.80;;;3.60;;
22916;SDS011;11624;53.250;7.456;2022-08-01T03:04:42;14.02;;;3.15;;
22916;SDS011;11624;53.250;7.456;2022-08-01T03:07:11;19.35;;;3.30;;
22916;SDS011;11624;53.250;7.456;2022-08-01T03:09:42;21.23;;;3.72;;
22916;SDS011;11624;53.250;7.456;2022-08-01T03:12:13;13.20;;;3.45;;
22916;SDS011;11624;53.250;7.456;2022-08-01T03:14:44;17.60;;;3.45;;
22916;SDS011;11624;53.250;7.456;2022-08-01T03:17:17;15.75;;;2.92;;
22916;SDS011;11624;53.250;7.456;2022-08-01T03:19:48;15.95;;;2.97;;
22916;SDS011;11624;53.250;7.456;2022-08-01T03:22:18;19.33;;;3.10;;
22916;SDS011;11624;53.250;7.456;2022-08-01T03:24:51;17.63;;;3.58;;
22916;SDS011;11624;53.250;7.456;2022-08-01T03:27:21;15.80;;;3.50;;
22916;SDS011;11624;53.250;7.456;2022-08-01T03:29:51;18.63;;;3.05;;
22916;SDS011;11624;53.250;7.456;2022-08-01T03:32:25;17.48;;;3.70;;
22916;SDS011;11624;53.250;7.456;2022-08-01T03:34:55;16.92;;;3.70;;
22916;SDS011;11624;53.250;7.456;2022-08-01T03:37:25;24.33;;;4.30;;
22916;SDS011;11624;53.250;7.456;2022-08-01T03:39:58;21.70;;;3.67;;
22916;SDS011;11624;53.250;7.456;2022-08-01T03:42:33;20.08;;;4.05;;
22916;SDS011;11624;53.250;7.456;2022-08-01T03:45:06;25.77;;;4.63;;
22916;SDS011;11624;53.250;7.456;2022-08-01T03:47:41;22.10;;;3.83;;
22916;SDS011;11624;53.250;7.456;2022-08-01T03:50:13;17.77;;;3.85;;
22916;SDS011;11624;53.250;7.456;2022-08-01T03:52:43;25.52;;;4.22;;
22916;SDS011;11624;53.250;7.456;2022-08-01T03:55:13;20.17;;;4.10;;
22916;SDS011;11624;53.250;7.456;2022-08-01T03:57:44;20.67;;;4.72;;
22916;SDS011;11624;53.250;7.456;2022-08-01T04:00:14;19.70;;;4.03;;
22916;SDS011;11624;53.250;7.456;2022-08-01T04:02:46;16.38;;;4.53;;
22916;SDS011;11624;53.250;7.456;2022-08-01T04:05:18;22.38;;;4.20;;
22916;SDS011;11624;53.250;7.456;2022-08-01T04:07:47;21.75;;;4.30;;
22916;SDS011;11624;53.250;7.456;2022-08-01T04:10:22;21.75;;;4.28;;
22916;SDS011;11624;53.250;7.456;2022-08-01T04:12:50;18.70;;;3.95;;
22916;SDS011;11624;53.250;7.456;2022-08-01T04:15:19;19.00;;;4.38;;
22916;SDS011;11624;53.250;7.456;2022-08-01T04:17:49;22.33;;;3.85;;
22916;SDS011;11624;53.250;7.456;2022-08-01T04:20:17;17.90;;;4.20;;
22916;SDS011;11624;53.250;7.456;2022-08-01T04:22:46;16.48;;;4.07;;
22916;SDS011;11624;53.250;7.456;2022-08-01T04:25:15;21.52;;;4.45;;
22916;SDS011;11624;53.250;7.456;2022-08-01T04:27:49;21.17;;;4.35;;
22916;SDS011;11624;53.250;7.456;2022-08-01T04:30:20;22.35;;;4.13;;
22916;SDS011;11624;53.250;7.456;2022-08-01T04:32:54;12.82;;;3.80;;
22916;SDS011;11624;53.250;7.456;2022-08-01T04:35:25;18.00;;;4.22;;
22916;SDS011;11624;53.250;7.456;2022-08-01T04:38:17;18.05;;;3.92;;
22916;SDS011;11624;53.250;7.456;2022-08-01T04:40:49;15.32;;;3.85;;
22916;SDS011;11624;53.250;7.456;2022-08-01T04:43:20;15.55;;;3.97;;
22916;SDS011;11624;53.250;7.456;2022-08-01T04:45:49;18.92;;;3.90;;
22916;SDS011;11624;53.250;7.456;2022-08-01T04:48:20;20.75;;;4.15;;
22916;SDS011;11624;53.250;7.456;2022-08-01T04:50:51;22.42;;;4.40;;
22916;SDS011;11624;53.250;7.456;2022-08-01T04:53:19;26.52;;;4.45;;
22916;SDS011;11624;53.250;7.456;2022-08-01T04:55:49;25.33;;;4.60;;
22916;SDS011;11624;53.250;7.456;2022-08-01T04:58:17;23.98;;;4.95;;
22916;SDS011;11624;53.250;7.456;2022-08-01T05:00:46;26.17;;;4.32;;
22916;SDS011;11624;53.250;7.456;2022-08-01T05:03:15;21.70;;;4.13;;
22916;SDS011;11624;53.250;7.456;2022-08-01T05:05:44;20.35;;;4.00;;
22916;SDS011;11624;53.250;7.456;2022-08-01T05:08:13;23.08;;;3.90;;
22916;SDS011;11624;53.250;7.456;2022-08-01T05:10:42;20.63;;;3.53;;
22916;SDS011;11624;53.250;7.456;2022-08-01T05:13:11;20.13;;;4.28;;
22916;SDS011;11624;53.250;7.456;2022-08-01T05:15:39;17.90;;;4.07;;
22916;SDS011;11624;53.250;7.456;2022-08-01T05:18:08;25.30;;;4.38;;
22916;SDS011;11624;53.250;7.456;2022-08-01T05:20:36;21.38;;;3.72;;
22916;SDS011;11624;53.250;7.456;2022-08-01T05:23:06;25.63;;;4.57;;
22916;SDS011;11624;53.250;7.456;2022-08-01T05:25:41;27.05;;;4.57;;
22916;SDS011;11624;53.250;7.456;2022-08-01T05:28:23;27.33;;;4.45;;
22916;SDS011;11624;53.250;7.456;2022-08-01T05:30:52;22.88;;;4.13;;
22916;SDS011;11624;53.250;7.456;2022-08-01T05:33:21;29.02;;;4.93;;
22916;SDS011;11624;53.250;7.456;2022-08-01T05:35:50;19.17;;;4.57;;
22916;SDS011;11624;53.250;7.456;2022-08-01T05:38:20;25.25;;;4.60;;
22916;SDS011;11624;53.250;7.456;2022-08-01T05:40:48;25.55;;;4.45;;
22916;SDS011;11624;53.250;7.456;2022-08-01T05:43:17;20.05;;;4.25;;
22916;SDS011;11624;53.250;7.456;2022-08-01T05:45:45;24.48;;;4.70;;
22916;SDS011;11624;53.250;7.456;2022-08-01T05:48:14;27.15;;;4.25;;
22916;SDS011;11624;53.250;7.456;2022-08-01T05:50:42;25.80;;;4.32;;
22916;SDS011;11624;53.250;7.456;2022-08-01T05:53:11;25.63;;;4.35;;
22916;SDS011;11624;53.250;7.456;2022-08-01T05:55:40;25.23;;;4.80;;
22916;SDS011;11624;53.250;7.456;2022-08-01T05:58:09;29.45;;;4.60;;
22916;SDS011;11624;53.250;7.456;2022-08-01T06:00:38;24.23;;;3.80;;
22916;SDS011;11624;53.250;7.456;2022-08-01T06:03:06;26.77;;;4.50;;
22916;SDS011;11624;53.250;7.456;2022-08-01T06:05:35;30.85;;;4.97;;
22916;SDS011;11624;53.250;7.456;2022-08-01T06:08:03;33.22;;;5.10;;
22916;SDS011;11624;53.250;7.456;2022-08-01T06:10:32;22.83;;;4.50;;
22916;SDS011;11624;53.250;7.456;2022-08-01T06:13:01;31.90;;;5.13;;
22916;SDS011;11624;53.250;7.456;2022-08-01T06:15:30;25.55;;;4.32;;
22916;SDS011;11624;53.250;7.456;2022-08-01T06:17:58;25.67;;;4.40;;
22916;SDS011;11624;53.250;7.456;2022-08-01T06:20:27;29.38;;;5.00;;
22916;SDS011;11624;53.250;7.456;2022-08-01T06:22:55;25.08;;;4.80;;
22916;SDS011;11624;53.250;7.456;2022-08-01T06:25:29;25.17;;;4.90;;
22916;SDS011;11624;53.250;7.456;2022-08-01T06:27:57;21.77;;;4.28;;
22916;SDS011;11624;53.250;7.456;2022-08-01T06:30:27;25.40;;;4.35;;
22916;SDS011;11624;53.250;7.456;2022-08-01T06:32:56;20.65;;;4.60;;
22916;SDS011;11624;53.250;7.456;2022-08-01T06:35:25;21.80;;;4.47;;
22916;SDS011;11624;53.250;7.456;2022-08-01T06:37:55;25.05;;;4.40;;
22916;SDS011;11624;53.250;7.456;2022-08-01T06:40:23;20.55;;;4.25;;
22916;SDS011;11624;53.250;7.456;2022-08-01T06:42:52;21.67;;;4.28;;
22916;SDS011;11624;53.250;7.456;2022-08-01T06:45:20;24.42;;;4.80;;
22916;SDS011;11624;53.250;7.456;2022-08-01T06:47:52;23.98;;;5.13;;
22916;SDS011;11624;53.250;7.456;2022-08-01T06:50:21;23.15;;;4.47;;
22916;SDS011;11624;53.250;7.456;2022-08-01T06:52:49;20.15;;;4.25;;
22916;SDS011;11624;53.250;7.456;2022-08-01T06:55:17;20.92;;;4.22;;
22916;SDS011;11624;53.250;7.456;2022-08-01T06:57:47;23.70;;;3.88;;
22916;SDS011;11624;53.250;7.456;2022-08-01T07:00:17;20.50;;;4.50;;
22916;SDS011;11624;53.250;7.456;2022-08-01T07:02:48;22.25;;;4.45;;
22916;SDS011;11624;53.250;7.456;2022-08-01T07:05:19;23.27;;;4.18;;
22916;SDS011;11624;53.250;7.456;2022-08-01T07:07:47;19.08;;;4.15;;
22916;SDS011;11624;53.250;7.456;2022-08-01T07:10:16;25.77;;;3.63;;
22916;SDS011;11624;53.250;7.456;2022-08-01T07:12:45;22.63;;;4.63;;
22916;SDS011;11624;53.250;7.456;2022-08-01T07:15:13;19.70;;;3.33;;
22916;SDS011;11624;53.250;7.456;2022-08-01T07:17:42;22.88;;;3.60;;
22916;SDS011;11624;53.250;7.456;2022-08-01T07:20:11;23.83;;;3.88;;
22916;SDS011;11624;53.250;7.456;2022-08-01T07:22:43;20.00;;;3.75;;
22916;SDS011;11624;53.250;7.456;2022-08-01T07:25:13;22.80;;;3.72;;
22916;SDS011;11624;53.250;7.456;2022-08-01T07:27:42;20.13;;;3.45;;
22916;SDS011;11624;53.250;7.456;2022-08-01T07:30:11;20.50;;;3.50;;
22916;SDS011;11624;53.250;7.456;2022-08-01T07:32:40;21.27;;;3.47;;
22916;SDS011;11624;53.250;7.456;2022-08-01T07:35:08;21.10;;;3.50;;
22916;SDS011;11624;53.250;7.456;2022-08-01T07:37:37;18.67;;;4.13;;
22916;SDS011;11624;53.250;7.456;2022-08-01T07:40:15;21.92;;;3.55;;
22916;SDS011;11624;53.250;7.456;2022-08-01T07:42:45;20.25;;;3.33;;
22916;SDS011;11624;53.250;7.456;2022-08-01T07:45:13;22.88;;;3.33;;
22916;SDS011;11624;53.250;7.456;2022-08-01T07:47:42;22.67;;;3.53;;
22916;SDS011;11624;53.250;7.456;2022-08-01T07:50:11;22.95;;;3.70;;
22916;SDS011;11624;53.250;7.456;2022-08-01T07:52:40;20.23;;;3.80;;
22916;SDS011;11624;53.250;7.456;2022-08-01T07:55:08;17.27;;;3.20;;
22916;SDS011;11624;53.250;7.456;2022-08-01T07:57:43;16.65;;;3.30;;
22916;SDS011;11624;53.250;7.456;2022-08-01T08:00:12;23.20;;;3.50;;
22916;SDS011;11624;53.250;7.456;2022-08-01T08:02:41;17.80;;;3.10;;
22916;SDS011;11624;53.250;7.456;2022-08-01T08:05:10;15.60;;;3.25;;
22916;SDS011;11624;53.250;7.456;2022-08-01T08:07:39;20.67;;;3.38;;
22916;SDS011;11624;53.250;7.456;2022-08-01T08:10:08;15.88;;;3.05;;
22916;SDS011;11624;53.250;7.456;2022-08-01T08:12:37;20.83;;;3.20;;
22916;SDS011;11624;53.250;7.456;2022-08-01T08:15:07;19.73;;;3.35;;
22916;SDS011;11624;53.250;7.456;2022-08-01T08:17:36;22.80;;;3.30;;
22916;SDS011;11624;53.250;7.456;2022-08-01T08:20:05;21.40;;;3.40;;
22916;SDS011;11624;53.250;7.456;2022-08-01T08:22:35;14.68;;;2.90;;
22916;SDS011;11624;53.250;7.456;2022-08-01T08:25:05;16.92;;;3.20;;
22916;SDS011;11624;53.250;7.456;2022-08-01T08:27:34;18.42;;;3.03;;
22916;SDS011;11624;53.250;7.456;2022-08-01T08:30:05;22.33;;;3.20;;
22916;SDS011;11624;53.250;7.456;2022-08-01T08:32:37;18.58;;;3.53;;
22916;SDS011;11624;53.250;7.456;2022-08-01T08:35:07;13.43;;;2.58;;
22916;SDS011;11624;53.250;7.456;2022-08-01T08:37:38;16.90;;;2.70;;
22916;SDS011;11624;53.250;7.456;2022-08-01T08:40:13;17.10;;;2.67;;
22916;SDS011;11624;53.250;7.456;2022-08-01T08:42:43;18.45;;;3.13;;
22916;SDS011;11624;53.250;7.456;2022-08-01T08:45:14;18.23;;;2.92;;
22916;SDS011;11624;53.250;7.456;2022-08-01T08:47:43;17.00;;;2.42;;
22916;SDS011;11624;53.250;7.456;2022-08-01T08:50:14;17.95;;;2.90;;
22916;SDS011;11624;53.250;7.456;2022-08-01T08:52:44;17.90;;;2.70;;
22916;SDS011;11624;53.250;7.456;2022-08-01T08:55:15;20.00;;;2.97;;
22916;SDS011;11624;53.250;7.456;2022-08-01T08:57:45;16.63;;;2.90;;
22916;SDS011;11624;53.250;7.456;2022-08-01T09:00:16;13.93;;;2.60;;
22916;SDS011;11624;53.250;7.456;2022-08-01T09:02:45;14.13;;;2.20;;
22916;SDS011;11624;53.250;7.456;2022-08-01T09:05:15;12.05;;;2.50;;
22916;SDS011;11624;53.250;7.456;2022-08-01T09:07:45;17.38;;;3.10;;
22916;SDS011;11624;53.250;7.456;2022-08-01T09:10:14;22.30;;;2.90;;
22916;SDS011;11624;53.250;7.456;2022-08-01T09:15:45;15.68;;;2.50;;
22916;SDS011;11624;53.250;7.456;2022-08-01T09:18:26;13.82;;;2.30;;
22916;SDS011;11624;53.250;7.456;2022-08-01T09:21:10;12.32;;;2.60;;
22916;SDS011;11624;53.250;7.456;2022-08-01T09:23:41;15.98;;;2.22;;
22916;SDS011;11624;53.250;7.456;2022-08-01T09:26:20;15.93;;;2.45;;
22916;SDS011;11624;53.250;7.456;2022-08-01T09:28:56;15.00;;;2.20;;
22916;SDS011;11624;53.250;7.456;2022-08-01T09:31:27;14.02;;;2.33;;
22916;SDS011;11624;53.250;7.456;2022-08-01T09:34:04;19.13;;;2.85;;
22916;SDS011;11624;53.250;7.456;2022-08-01T09:36:45;13.27;;;2.30;;
22916;SDS011;11624;53.250;7.456;2022-08-01T09:39:20;16.45;;;2.15;;
22916;SDS011;11624;53.250;7.456;2022-08-01T09:41:50;13.95;;;2.55;;
22916;SDS011;11624;53.250;7.456;2022-08-01T09:44:25;22.25;;;2.88;;
22916;SDS011;11624;53.250;7.456;2022-08-01T09:47:11;14.20;;;2.25;;
22916;SDS011;11624;53.250;7.456;2022-08-01T09:49:41;13.57;;;2.30;;
22916;SDS011;11624;53.250;7.456;2022-08-01T09:52:18;14.00;;;2.35;;
22916;SDS011;11624;53.250;7.456;2022-08-01T09:54:52;11.48;;;2.38;;
22916;SDS011;11624;53.250;7.456;2022-08-01T09:57:21;15.05;;;2.40;;
22916;SDS011;11624;53.250;7.456;2022-08-01T09:59:50;12.95;;;2.42;;
22916;SDS011;11624;53.250;7.456;2022-08-01T10:02:28;12.60;;;2.67;;
22916;SDS011;11624;53.250;7.456;2022-08-01T10:05:00;9.88;;;2.30;;
22916;SDS011;11624;53.250;7.456;2022-08-01T10:07:34;12.55;;;2.03;;
22916;SDS011;11624;53.250;7.456;2022-08-01T10:10:09;15.70;;;2.20;;
22916;SDS011;11624;53.250;7.456;2022-08-01T10:12:40;14.18;;;2.05;;
22916;SDS011;11624;53.250;7.456;2022-08-01T10:15:11;9.65;;;2.22;;
22916;SDS011;11624;53.250;7.456;2022-08-01T10:17:51;11.65;;;2.17;;
22916;SDS011;11624;53.250;7.456;2022-08-01T10:20:23;12.45;;;1.95;;
22916;SDS011;11624;53.250;7.456;2022-08-01T10:22:58;17.05;;;2.30;;
22916;SDS011;11624;53.250;7.456;2022-08-01T10:25:34;13.18;;;2.15;;
22916;SDS011;11624;53.250;7.456;2022-08-01T10:28:10;15.25;;;2.30;;
22916;SDS011;11624;53.250;7.456;2022-08-01T10:30:49;12.18;;;2.10;;
22916;SDS011;11624;53.250;7.456;2022-08-01T10:33:22;13.30;;;2.35;;
22916;SDS011;11624;53.250;7.456;2022-08-01T10:36:11;10.23;;;2.20;;
22916;SDS011;11624;53.250;7.456;2022-08-01T10:38:42;13.15;;;2.50;;
22916;SDS011;11624;53.250;7.456;2022-08-01T10:41:11;14.52;;;1.80;;
22916;SDS011;11624;53.250;7.456;2022-08-01T10:43:42;12.55;;;2.25;;
22916;SDS011;11624;53.250;7.456;2022-08-01T10:46:12;10.70;;;2.00;;
22916;SDS011;11624;53.250;7.456;2022-08-01T10:48:44;14.45;;;2.22;;
22916;SDS011;11624;53.250;7.456;2022-08-01T10:51:22;15.02;;;2.50;;
22916;SDS011;11624;53.250;7.456;2022-08-01T10:54:11;12.43;;;2.08;;
22916;SDS011;11624;53.250;7.456;2022-08-01T10:56:42;11.98;;;2.50;;
22916;SDS011;11624;53.250;7.456;2022-08-01T10:59:14;16.38;;;2.35;;
22916;SDS011;11624;53.250;7.456;2022-08-01T11:02:07;14.48;;;2.22;;
22916;SDS011;11624;53.250;7.456;2022-08-01T11:04:48;12.85;;;1.90;;
22916;SDS011;11624;53.250;7.456;2022-08-01T11:07:23;15.95;;;2.30;;
22916;SDS011;11624;53.250;7.456;2022-08-01T11:10:09;14.05;;;2.33;;
22916;SDS011;11624;53.250;7.456;2022-08-01T11:12:43;9.60;;;1.75;;
22916;SDS011;11624;53.250;7.456;2022-08-01T11:15:21;9.70;;;1.90;;
22916;SDS011;11624;53.250;7.456;2022-08-01T11:20:58;11.25;;;2.00;;
22916;SDS011;11624;53.250;7.456;2022-08-01T11:23:48;11.25;;;2.08;;
22916;SDS011;11624;53.250;7.456;2022-08-01T11:26:18;12.15;;;1.67;;
22916;SDS011;11624;53.250;7.456;2022-08-01T11:29:14;12.05;;;2.03;;
22916;SDS011;11624;53.250;7.456;2022-08-01T11:31:47;12.57;;;2.00;;
22916;SDS011;11624;53.250;7.456;2022-08-01T11:34:17;11.23;;;2.63;;
22916;SDS011;11624;53.250;7.456;2022-08-01T11:36:46;9.25;;;2.05;;
22916;SDS011;11624;53.250;7.456;2022-08-01T11:39:30;9.98;;;2.03;;
22916;SDS011;11624;53.250;7.456;2022-08-01T11:42:17;11.52;;;1.90;;
22916;SDS011;11624;53.250;7.456;2022-08-01T11:44:49;10.82;;;1.98;;
22916;SDS011;11624;53.250;7.456;2022-08-01T11:47:18;9.10;;;1.80;;
22916;SDS011;11624;53.250;7.456;2022-08-01T11:50:06;13.63;;;2.15;;
22916;SDS011;11624;53.250;7.456;2022-08-01T11:53:00;11.52;;;1.90;;
22916;SDS011;11624;53.250;7.456;2022-08-01T11:55:30;10.07;;;1.95;;
22916;SDS011;11624;53.250;7.456;2022-08-01T11:58:01;11.18;;;1.83;;
22916;SDS011;11624;53.250;7.456;2022-08-01T12:00:31;10.52;;;2.00;;
22916;SDS011;11624;53.250;7.456;2022-08-01T12:03:01;15.60;;;2.38;;
22916;SDS011;11624;53.250;7.456;2022-08-01T12:05:33;16.15;;;2.20;;
22916;SDS011;11624;53.250;7.456;2022-08-01T12:08:10;8.95;;;2.00;;
22916;SDS011;11624;53.250;7.456;2022-08-01T12:10:38;11.25;;;1.80;;
22916;SDS011;11624;53.250;7.456;2022-08-01T12:13:15;10.65;;;1.98;;
22916;SDS011;11624;53.250;7.456;2022-08-01T12:15:44;11.68;;;1.70;;
22916;SDS011;11624;53.250;7.456;2022-08-01T12:18:17;8.77;;;1.95;;
22916;SDS011;11624;53.250;7.456;2022-08-01T12:20:46;11.82;;;2.00;;
22916;SDS011;11624;53.250;7.456;2022-08-01T12:23:24;13.30;;;2.20;;
22916;SDS011;11624;53.250;7.456;2022-08-01T12:25:52;11.70;;;1.90;;
22916;SDS011;11624;53.250;7.456;2022-08-01T12:28:21;12.50;;;2.33;;
22916;SDS011;11624;53.250;7.456;2022-08-01T12:30:49;7.75;;;1.70;;
22916;SDS011;11624;53.250;7.456;2022-08-01T12:33:19;11.50;;;2.40;;
22916;SDS011;11624;53.250;7.456;2022-08-01T12:35:48;9.95;;;1.85;;
22916;SDS011;11624;53.250;7.456;2022-08-01T12:38:18;11.80;;;2.20;;
22916;SDS011;11624;53.250;7.456;2022-08-01T12:40:59;9.27;;;1.75;;
22916;SDS011;11624;53.250;7.456;2022-08-01T12:43:28;10.02;;;1.77;;
22916;SDS011;11624;53.250;7.456;2022-08-01T12:46:00;11.73;;;2.10;;
22916;SDS011;11624;53.250;7.456;2022-08-01T12:48:31;5.70;;;1.40;;
22916;SDS011;11624;53.250;7.456;2022-08-01T12:51:03;9.40;;;2.22;;
22916;SDS011;11624;53.250;7.456;2022-08-01T12:53:34;10.73;;;1.90;;
22916;SDS011;11624;53.250;7.456;2022-08-01T12:56:08;8.57;;;1.80;;
22916;SDS011;11624;53.250;7.456;2022-08-01T12:58:37;17.15;;;2.40;;
22916;SDS011;11624;53.250;7.456;2022-08-01T13:01:06;12.55;;;1.98;;
22916;SDS011;11624;53.250;7.456;2022-08-01T13:03:36;12.98;;;1.98;;
22916;SDS011;11624;53.250;7.456;2022-08-01T13:06:14;10.75;;;1.95;;
22916;SDS011;11624;53.250;7.456;2022-08-01T13:08:44;12.13;;;1.90;;
22916;SDS011;11624;53.250;7.456;2022-08-01T13:11:14;11.55;;;2.20;;
22916;SDS011;11624;53.250;7.456;2022-08-01T13:13:44;10.35;;;2.03;;
22916;SDS011;11624;53.250;7.456;2022-08-01T13:16:18;11.75;;;1.77;;
22916;SDS011;11624;53.250;7.456;2022-08-01T13:19:08;6.88;;;1.58;;
22916;SDS011;11624;53.250;7.456;2022-08-01T13:21:36;9.77;;;2.03;;
22916;SDS011;11624;53.250;7.456;2022-08-01T13:24:22;11.00;;;1.90;;
22916;SDS011;11624;53.250;7.456;2022-08-01T13:26:55;9.20;;;1.85;;
22916;SDS011;11624;53.250;7.456;2022-08-01T13:29:30;10.27;;;1.88;;
22916;SDS011;11624;53.250;7.456;2022-08-01T13:32:00;10.88;;;1.73;;
22916;SDS011;11624;53.250;7.456;2022-08-01T13:35:00;12.15;;;2.10;;
22916;SDS011;11624;53.250;7.456;2022-08-01T13:37:28;11.02;;;1.90;;
22916;SDS011;11624;53.250;7.456;2022-08-01T13:40:05;8.13;;;1.75;;
22916;SDS011;11624;53.250;7.456;2022-08-01T13:42:36;9.80;;;2.10;;
22916;SDS011;11624;53.250;7.456;2022-08-01T13:45:05;10.95;;;1.80;;
22916;SDS011;11624;53.250;7.456;2022-08-01T13:47:40;7.97;;;1.80;;
22916;SDS011;11624;53.250;7.456;2022-08-01T13:50:28;10.15;;;2.05;;
22916;SDS011;11624;53.250;7.456;2022-08-01T13:52:56;10.20;;;1.67;;
22916;SDS011;11624;53.250;7.456;2022-08-01T13:55:24;9.23;;;1.90;;
22916;SDS011;11624;53.250;7.456;2022-08-01T13:58:01;12.18;;;1.75;;
22916;SDS011;11624;53.250;7.456;2022-08-01T14:00:32;14.68;;;1.80;;
22916;SDS011;11624;53.250;7.456;2022-08-01T14:03:00;11.27;;;1.90;;
22916;SDS011;11624;53.250;7.456;2022-08-01T14:05:29;10.63;;;1.77;;
22916;SDS011;11624;53.250;7.456;2022-08-01T14:07:57;13.45;;;3.08;;
22916;SDS011;11624;53.250;7.456;2022-08-01T14:10:26;11.55;;;2.70;;
22916;SDS011;11624;53.250;7.456;2022-08-01T14:12:56;12.23;;;2.35;;
22916;SDS011;11624;53.250;7.456;2022-08-01T14:15:28;8.52;;;1.92;;
22916;SDS011;11624;53.250;7.456;2022-08-01T14:18:05;15.18;;;2.50;;
22916;SDS011;11624;53.250;7.456;2022-08-01T14:20:38;10.18;;;1.60;;
22916;SDS011;11624;53.250;7.456;2022-08-01T14:23:07;11.30;;;1.88;;
22916;SDS011;11624;53.250;7.456;2022-08-01T14:25:36;10.10;;;2.20;;
22916;SDS011;11624;53.250;7.456;2022-08-01T14:28:24;12.25;;;1.73;;
22916;SDS011;11624;53.250;7.456;2022-08-01T14:30:56;11.05;;;1.90;;
22916;SDS011;11624;53.250;7.456;2022-08-01T14:33:26;6.00;;;1.52;;
22916;SDS011;11624;53.250;7.456;2022-08-01T14:35:54;10.20;;;1.80;;
22916;SDS011;11624;53.250;7.456;2022-08-01T14:38:43;11.73;;;1.80;;
22916;SDS011;11624;53.250;7.456;2022-08-01T14:41:12;12.18;;;1.90;;
22916;SDS011;11624;53.250;7.456;2022-08-01T14:43:40;9.35;;;1.80;;
22916;SDS011;11624;53.250;7.456;2022-08-01T14:46:10;10.13;;;1.83;;
22916;SDS011;11624;53.250;7.456;2022-08-01T14:48:39;10.68;;;1.88;;
22916;SDS011;11624;53.250;7.456;2022-08-01T14:51:09;8.25;;;1.45;;
22916;SDS011;11624;53.250;7.456;2022-08-01T14:53:37;10.52;;;1.92;;
22916;SDS011;11624;53.250;7.456;2022-08-01T14:56:16;14.10;;;2.42;;
22916;SDS011;11624;53.250;7.456;2022-08-01T14:58:45;10.05;;;2.03;;
22916;SDS011;11624;53.250;7.456;2022-08-01T15:01:15;12.05;;;2.28;;
22916;SDS011;11624;53.250;7.456;2022-08-01T15:03:44;12.43;;;2.38;;
22916;SDS011;11624;53.250;7.456;2022-08-01T15:06:18;13.63;;;2.20;;
22916;SDS011;11624;53.250;7.456;2022-08-01T15:08:46;12.45;;;2.22;;
22916;SDS011;11624;53.250;7.456;2022-08-01T15:11:14;9.30;;;2.15;;
22916;SDS011;11624;53.250;7.456;2022-08-01T15:13:42;9.00;;;1.92;;